Weather reports worldwide

Advertisment
Sheffield, United Kingdom (99107): temperature & dewpoint: 02.07.2020 05:00:00 - 08.07.2020 05:00:00 (BST)Sheffield, United Kingdom (99107): sunshine duration: 02.07.2020 05:00:00 - 08.07.2020 05:00:00 (BST)Sheffield, United Kingdom (99107): precipitation: 02.07.2020 05:00:00 - 08.07.2020 05:00:00 (BST)
Date & Time tt [°C] td [°C] sd [min] rr [mm]
08.07.2020 05:00:00 - - - -
08.07.2020 04:00:00 11,9 11,6 0 0,6
08.07.2020 03:00:00 11,9 11,6 0 0,6
08.07.2020 02:00:00 11,9 11,6 0 1,0
08.07.2020 01:00:00 12,0 11,6 - 0,4
08.07.2020 00:00:00 11,9 11,5 0 0,4
07.07.2020 23:00:00 11,8 11,3 0 0,2
07.07.2020 22:00:00 11,8 11,1 0 0,2
07.07.2020 21:00:00 12,1 11,1 0 0,2
07.07.2020 20:00:00 12,8 10,5 0 0,0
07.07.2020 19:00:00 13,1 10,4 0 0,0
07.07.2020 18:00:00 13,0 10,3 0 0,2
07.07.2020 17:00:00 12,7 10,3 0 0,6
07.07.2020 16:00:00 12,7 9,4 0 0,2
07.07.2020 15:00:00 13,5 9,7 0 0,0
07.07.2020 14:00:00 13,2 9,5 0 0,4
07.07.2020 13:00:00 14,3 8,8 0 0,2
07.07.2020 12:00:00 14,2 7,8 0 0,0
07.07.2020 11:00:00 14,2 8,7 0 0,0
07.07.2020 10:00:00 14,7 9,5 0 0,0
07.07.2020 09:00:00 14,7 9,0 0 0,0
07.07.2020 08:00:00 13,7 9,4 6 0,0
07.07.2020 07:00:00 13,0 9,4 24 0,0
07.07.2020 06:00:00 12,0 9,4 0 0,0
07.07.2020 05:00:00 12,0 9,2 0 0,0
07.07.2020 04:00:00 12,2 8,9 0 0,0
07.07.2020 03:00:00 12,3 9,1 0 0,0
07.07.2020 02:00:00 12,2 8,7 0 0,0
07.07.2020 01:00:00 12,2 8,4 - 0,0
07.07.2020 00:00:00 12,4 8,2 0 0,0
06.07.2020 23:00:00 11,9 7,5 0 0,0
06.07.2020 22:00:00 12,7 7,2 0 0,0
06.07.2020 21:00:00 13,9 6,6 60 0,0
06.07.2020 20:00:00 15,0 5,8 60 0,0
06.07.2020 19:00:00 16,5 5,6 60 0,0
06.07.2020 18:00:00 17,4 5,3 60 0,0
06.07.2020 17:00:00 17,4 6,0 60 0,0
06.07.2020 16:00:00 18,2 7,4 54 0,0
06.07.2020 15:00:00 17,4 7,8 30 0,0
06.07.2020 14:00:00 16,9 10,1 6 0,0
06.07.2020 13:00:00 16,1 8,7 0 0,0
06.07.2020 12:00:00 16,4 10,2 18 0,0
06.07.2020 11:00:00 14,6 9,5 12 0,0
06.07.2020 10:00:00 13,8 9,4 6 0,0
06.07.2020 09:00:00 12,9 9,5 6 0,0
06.07.2020 08:00:00 12,3 8,6 0 0,0
06.07.2020 07:00:00 12,4 8,5 30 0,0
06.07.2020 06:00:00 11,6 8,0 6 0,0
06.07.2020 05:00:00 11,5 8,1 0 0,0
06.07.2020 04:00:00 11,7 7,9 0 0,0
06.07.2020 03:00:00 12,1 8,0 0 0,0
06.07.2020 02:00:00 12,1 8,3 0 0,0
06.07.2020 01:00:00 12,2 7,9 - 0,0
06.07.2020 00:00:00 12,2 8,4 0 0,2
05.07.2020 23:00:00 12,0 9,4 0 0,0
05.07.2020 22:00:00 11,8 9,5 0 1,0
05.07.2020 21:00:00 12,0 9,1 0 0,6
05.07.2020 20:00:00 12,5 9,0 18 1,0
05.07.2020 19:00:00 15,3 7,8 24 0,0
05.07.2020 18:00:00 14,0 10,7 36 0,6
05.07.2020 17:00:00 16,6 8,9 42 0,2
05.07.2020 16:00:00 14,9 9,1 42 0,0
05.07.2020 15:00:00 16,9 7,1 36 0,0
05.07.2020 14:00:00 17,1 7,5 42 0,0
05.07.2020 13:00:00 16,6 6,9 30 0,0
05.07.2020 12:00:00 16,2 6,3 36 0,0
05.07.2020 11:00:00 15,3 6,0 42 0,0
05.07.2020 10:00:00 15,7 7,5 18 0,0
05.07.2020 09:00:00 14,9 7,7 42 0,0
05.07.2020 08:00:00 14,8 8,5 42 0,0
05.07.2020 07:00:00 15,2 9,3 0 0,0
05.07.2020 06:00:00 15,9 11,9 0 0,0
05.07.2020 05:00:00 16,2 12,9 0 0,0
05.07.2020 04:00:00 16,0 14,0 0 0,2
05.07.2020 03:00:00 16,5 14,0 0 0,0
05.07.2020 02:00:00 16,5 14,0 0 0,0
05.07.2020 01:00:00 16,6 14,1 - 0,0
05.07.2020 00:00:00 17,0 13,8 0 0,0
04.07.2020 23:00:00 17,3 14,0 0 0,0
04.07.2020 22:00:00 17,0 13,5 0 0,0
04.07.2020 21:00:00 17,4 13,4 0 0,0
04.07.2020 20:00:00 17,8 13,8 0 0,0
04.07.2020 19:00:00 18,1 13,6 0 0,0
04.07.2020 18:00:00 18,2 14,1 0 0,0
04.07.2020 17:00:00 18,4 13,5 12 0,0
04.07.2020 16:00:00 18,7 14,1 0 0,0
04.07.2020 15:00:00 18,7 14,1 0 0,0
04.07.2020 14:00:00 18,7 13,7 0 0,0
04.07.2020 13:00:00 17,7 13,7 0 0,0
04.07.2020 12:00:00 18,1 14,3 0 0,0
04.07.2020 11:00:00 16,4 14,2 0 0,0
04.07.2020 10:00:00 16,4 13,8 0 0,0
04.07.2020 09:00:00 16,8 14,0 0 0,0
04.07.2020 08:00:00 16,6 13,9 0 0,0
04.07.2020 07:00:00 16,3 14,0 0 0,0
04.07.2020 06:00:00 15,7 14,0 0 0,2
04.07.2020 05:00:00 15,4 14,0 0 0,0
04.07.2020 04:00:00 15,5 13,8 0 0,0
04.07.2020 03:00:00 15,2 13,8 0 0,2
04.07.2020 02:00:00 15,1 13,7 0 0,4
04.07.2020 01:00:00 15,3 13,4 - 0,0
04.07.2020 00:00:00 15,1 13,3 0 0,0
03.07.2020 23:00:00 14,9 13,1 0 0,2
03.07.2020 22:00:00 14,9 12,9 0 0,0
03.07.2020 21:00:00 15,1 12,9 0 0,0
03.07.2020 20:00:00 15,7 12,7 0 0,0
03.07.2020 19:00:00 16,0 13,2 0 0,0
03.07.2020 18:00:00 15,8 13,4 0 0,0
03.07.2020 17:00:00 15,9 13,2 18 0,2
03.07.2020 16:00:00 17,7 12,5 6 0,0
03.07.2020 15:00:00 17,3 12,2 18 0,0
03.07.2020 14:00:00 16,3 13,1 6 0,2
03.07.2020 13:00:00 15,4 11,9 0 0,0
03.07.2020 12:00:00 15,4 10,7 0 0,0
03.07.2020 11:00:00 14,4 10,1 0 0,0
03.07.2020 10:00:00 13,4 10,1 0 0,0
03.07.2020 09:00:00 13,4 9,5 0 0,0
03.07.2020 08:00:00 13,5 9,3 0 0,0
03.07.2020 07:00:00 12,8 10,2 0 0,0
03.07.2020 06:00:00 12,2 9,4 0 0,0
03.07.2020 05:00:00 12,0 9,4 0 0,0
03.07.2020 04:00:00 12,3 9,2 0 0,0
03.07.2020 03:00:00 12,5 9,1 0 0,0
03.07.2020 02:00:00 12,6 10,1 0 0,0
03.07.2020 01:00:00 12,2 9,8 - 0,0
03.07.2020 00:00:00 13,1 9,8 0 0,0
02.07.2020 23:00:00 13,6 10,7 0 0,0
02.07.2020 22:00:00 13,8 12,0 0 0,0
02.07.2020 21:00:00 14,0 12,2 0 0,0
02.07.2020 20:00:00 13,8 11,9 0 0,0
02.07.2020 19:00:00 13,5 11,8 0 0,2
02.07.2020 18:00:00 13,6 11,3 0 0,0
02.07.2020 17:00:00 13,4 11,6 0 0,0
02.07.2020 16:00:00 14,0 11,0 0 0,0
02.07.2020 15:00:00 13,4 11,4 0 0,0
02.07.2020 14:00:00 13,0 11,3 0 0,0
02.07.2020 13:00:00 12,3 11,2 0 0,2
02.07.2020 12:00:00 12,0 11,2 0 0,0
02.07.2020 11:00:00 11,5 11,0 0 0,0
02.07.2020 10:00:00 11,2 10,6 0 0,6
02.07.2020 09:00:00 11,4 10,9 0 0,4
02.07.2020 08:00:00 11,6 11,1 0 0,8
02.07.2020 07:00:00 12,2 11,8 0 1,0
02.07.2020 06:00:00 12,5 12,2 0 1,4
02.07.2020 05:00:00 12,6 12,2 0 0,6

tt = temperature
td = dewpoint
sd = sunshine duration
rr = precipitation

Next stations